createdAt,value
2022-12-31T00:00:29.238Z,9.22
2022-12-31T00:03:01.087Z,9.23
2022-12-31T00:05:34.148Z,9.20
2022-12-31T00:08:05.953Z,9.20
2022-12-31T00:10:41.529Z,9.23
2022-12-31T00:13:13.647Z,9.27
2022-12-31T00:15:45.437Z,9.28
2022-12-31T00:18:19.909Z,9.23
2022-12-31T00:20:53.677Z,9.19
2022-12-31T00:23:25.394Z,9.23
2022-12-31T00:25:57.067Z,9.21
2022-12-31T00:28:29.158Z,9.17
2022-12-31T00:31:09.433Z,9.17
2022-12-31T00:33:41.968Z,9.22
2022-12-31T00:36:22.429Z,9.24
2022-12-31T00:38:57.696Z,9.26
2022-12-31T00:41:29.647Z,9.24
2022-12-31T00:44:01.669Z,9.25
2022-12-31T00:46:33.577Z,9.24
2022-12-31T00:49:06.007Z,9.23
2022-12-31T00:51:37.803Z,9.27
2022-12-31T00:54:10.240Z,9.30
2022-12-31T00:56:41.946Z,9.29
2022-12-31T00:59:13.724Z,9.31
2022-12-31T01:01:45.763Z,9.29
2022-12-31T01:04:20.979Z,9.29
2022-12-31T01:06:52.683Z,9.31
2022-12-31T01:09:24.411Z,9.34
2022-12-31T01:11:56.106Z,9.40
2022-12-31T01:14:27.918Z,9.41
2022-12-31T01:16:59.626Z,9.42
2022-12-31T01:19:31.412Z,9.48
2022-12-31T01:22:03.092Z,9.52
2022-12-31T01:24:34.857Z,9.59
2022-12-31T01:27:09.340Z,9.65
2022-12-31T01:29:41.198Z,9.68
2022-12-31T01:32:12.912Z,9.70
2022-12-31T01:34:44.681Z,9.72
2022-12-31T01:37:16.471Z,9.77
2022-12-31T01:39:48.490Z,9.77
2022-12-31T01:42:20.214Z,9.73
2022-12-31T01:44:54.895Z,9.72
2022-12-31T01:47:37.995Z,9.70
2022-12-31T01:50:16.830Z,9.70
2022-12-31T01:52:52.411Z,9.70
2022-12-31T01:55:52.793Z,9.72
2022-12-31T01:58:44.235Z,9.73
2022-12-31T02:01:23.821Z,9.76
2022-12-31T02:03:57.418Z,9.77
2022-12-31T02:06:44.090Z,9.76
2022-12-31T02:09:15.991Z,9.76
2022-12-31T02:11:47.980Z,9.79
2022-12-31T02:14:31.502Z,9.82
2022-12-31T02:17:24.654Z,9.83
2022-12-31T02:20:20.559Z,9.87
2022-12-31T02:23:17.562Z,9.88
2022-12-31T02:26:07.495Z,9.84
2022-12-31T02:28:42.042Z,9.85
2022-12-31T02:31:21.627Z,9.88
2022-12-31T02:34:02.370Z,9.91
2022-12-31T02:36:38.315Z,9.95
2022-12-31T02:39:12.518Z,9.98
2022-12-31T02:41:51.317Z,10.02
2022-12-31T02:44:26.848Z,10.07
2022-12-31T02:47:10.583Z,10.10
2022-12-31T02:50:03.876Z,10.11
2022-12-31T02:52:38.220Z,10.11
2022-12-31T02:55:15.705Z,10.10
2022-12-31T02:58:13.148Z,10.13
2022-12-31T03:01:14.672Z,10.15
2022-12-31T03:03:46.465Z,10.15
2022-12-31T03:06:18.484Z,10.15
2022-12-31T03:09:11.107Z,10.14
2022-12-31T03:12:01.332Z,10.14
2022-12-31T03:14:33.222Z,10.13
2022-12-31T03:17:05.013Z,10.13
2022-12-31T03:19:55.044Z,10.14
2022-12-31T03:22:29.694Z,10.13
2022-12-31T03:25:26.234Z,10.18
2022-12-31T03:27:58.369Z,10.22
2022-12-31T03:30:32.154Z,10.25
2022-12-31T03:33:05.499Z,10.27
2022-12-31T03:35:38.803Z,10.31
2022-12-31T03:38:10.625Z,10.34
2022-12-31T03:40:45.244Z,10.40
2022-12-31T03:43:19.379Z,10.44
2022-12-31T03:45:52.863Z,10.51
2022-12-31T03:48:24.648Z,10.57
2022-12-31T03:50:56.402Z,10.61
2022-12-31T03:53:28.235Z,10.66
2022-12-31T03:55:59.975Z,10.70
2022-12-31T03:58:31.685Z,10.71
2022-12-31T04:01:03.591Z,10.74
2022-12-31T04:03:35.426Z,10.78
2022-12-31T04:06:07.279Z,10.82
2022-12-31T04:08:39.074Z,10.85
2022-12-31T04:11:12.801Z,10.87
2022-12-31T04:13:47.749Z,10.90
2022-12-31T04:16:22.480Z,10.92
2022-12-31T04:19:00.076Z,10.95
2022-12-31T04:21:35.151Z,10.95
2022-12-31T04:24:07.575Z,10.97
2022-12-31T04:26:39.733Z,10.97
2022-12-31T04:29:11.527Z,10.98
2022-12-31T04:31:43.262Z,10.98
2022-12-31T04:34:15.035Z,11.02
2022-12-31T04:36:46.822Z,11.03
2022-12-31T04:39:18.569Z,11.04
2022-12-31T04:41:50.679Z,11.04
2022-12-31T04:44:22.856Z,11.05
2022-12-31T04:46:54.536Z,11.04
2022-12-31T04:49:26.279Z,11.06
2022-12-31T04:51:58.009Z,11.04
2022-12-31T04:54:29.800Z,11.06
2022-12-31T04:57:01.486Z,11.08
2022-12-31T04:59:33.405Z,11.07
2022-12-31T05:02:05.199Z,11.09
2022-12-31T05:04:37.069Z,11.13
2022-12-31T05:07:08.842Z,11.14
2022-12-31T05:09:40.626Z,11.14
2022-12-31T05:12:12.286Z,11.17
2022-12-31T05:14:44.046Z,11.19
2022-12-31T05:17:15.711Z,11.21
2022-12-31T05:19:47.465Z,11.25
2022-12-31T05:22:31.307Z,11.26
2022-12-31T05:25:03.095Z,11.26
2022-12-31T05:27:35.169Z,11.27
2022-12-31T05:30:07.754Z,11.31
2022-12-31T05:32:39.729Z,11.37
2022-12-31T05:35:11.645Z,11.39
2022-12-31T05:37:43.630Z,11.37
2022-12-31T05:40:15.840Z,11.40
2022-12-31T05:42:47.583Z,11.43
2022-12-31T05:45:23.863Z,11.45
2022-12-31T05:47:58.674Z,11.47
2022-12-31T05:50:30.377Z,11.49
2022-12-31T05:53:08.915Z,11.52
2022-12-31T05:55:40.713Z,11.56
2022-12-31T05:58:12.518Z,11.57
2022-12-31T06:00:44.695Z,11.60
2022-12-31T06:03:16.438Z,11.65
2022-12-31T06:05:48.214Z,11.68
2022-12-31T06:08:19.895Z,11.74
2022-12-31T06:10:51.661Z,11.81
2022-12-31T06:13:23.337Z,11.90
2022-12-31T06:15:55.228Z,12.01
2022-12-31T06:18:26.972Z,12.08
2022-12-31T06:20:58.926Z,12.17
2022-12-31T06:23:31.085Z,12.25
2022-12-31T06:26:06.924Z,12.30
2022-12-31T06:28:39.667Z,12.40
2022-12-31T06:31:13.764Z,12.45
2022-12-31T06:33:46.937Z,12.49
2022-12-31T06:36:22.205Z,12.53
2022-12-31T06:38:55.199Z,12.55
2022-12-31T06:41:27.023Z,12.56
2022-12-31T06:43:59.242Z,12.59
2022-12-31T06:46:31.009Z,12.62
2022-12-31T06:49:03.079Z,12.64
2022-12-31T06:51:34.949Z,12.75
2022-12-31T06:54:06.739Z,12.70
2022-12-31T06:56:40.421Z,12.74
2022-12-31T06:59:30.988Z,12.78
2022-12-31T07:02:05.794Z,12.82
2022-12-31T07:05:12.902Z,12.87
2022-12-31T07:08:09.640Z,12.89
2022-12-31T07:10:47.296Z,12.90
2022-12-31T07:13:18.963Z,12.94
2022-12-31T07:16:18.239Z,12.97
2022-12-31T07:18:53.060Z,12.99
2022-12-31T07:21:37.265Z,13.02
2022-12-31T07:24:10.577Z,13.05
2022-12-31T07:27:02.939Z,13.19
2022-12-31T07:29:56.480Z,13.31
2022-12-31T07:32:57.057Z,13.43
2022-12-31T07:35:42.128Z,13.60
2022-12-31T07:38:29.115Z,13.78
2022-12-31T07:41:20.975Z,13.89
2022-12-31T07:44:13.215Z,14.01
2022-12-31T07:47:01.823Z,14.06
2022-12-31T07:49:34.340Z,14.14
2022-12-31T07:52:07.560Z,14.25
2022-12-31T07:54:39.315Z,14.54
2022-12-31T07:57:16.533Z,15.57
2022-12-31T08:00:13.826Z,16.34
2022-12-31T08:03:21.643Z,17.02
2022-12-31T08:06:19.402Z,17.56
2022-12-31T08:09:03.825Z,18.01
2022-12-31T08:11:48.349Z,17.89
2022-12-31T08:14:21.506Z,17.30
2022-12-31T08:16:54.472Z,16.89
2022-12-31T08:19:32.539Z,16.47
2022-12-31T08:22:27.190Z,16.24
2022-12-31T08:25:21.116Z,15.95
2022-12-31T08:28:13.574Z,15.81
2022-12-31T08:30:58.579Z,15.74
2022-12-31T08:33:54.061Z,15.70
2022-12-31T08:36:47.521Z,15.72
2022-12-31T08:39:33.783Z,15.63
2022-12-31T08:42:25.384Z,15.66
2022-12-31T08:45:31.797Z,15.72
2022-12-31T08:48:18.238Z,15.88
2022-12-31T08:50:50.127Z,16.20
2022-12-31T08:53:22.194Z,16.71
2022-12-31T08:56:00.626Z,16.96
2022-12-31T08:58:38.548Z,17.12
2022-12-31T09:01:13.817Z,17.20
2022-12-31T09:04:00.021Z,17.51
2022-12-31T09:06:36.416Z,17.97
2022-12-31T09:09:30.106Z,18.43
2022-12-31T09:12:09.532Z,18.26
2022-12-31T09:14:47.141Z,18.26
2022-12-31T09:17:45.079Z,18.34
2022-12-31T09:20:22.774Z,18.25
2022-12-31T09:22:55.696Z,18.22
2022-12-31T09:25:30.607Z,18.16
2022-12-31T09:28:17.878Z,18.09
2022-12-31T09:31:00.854Z,18.17
2022-12-31T09:33:50.133Z,18.20
2022-12-31T09:36:48.838Z,18.39
2022-12-31T09:39:47.851Z,18.27
2022-12-31T09:42:49.073Z,17.93
2022-12-31T09:45:36.769Z,17.58
2022-12-31T09:48:32.943Z,17.46
2022-12-31T09:51:29.376Z,17.42
2022-12-31T09:54:04.233Z,17.46
2022-12-31T09:56:42.696Z,17.50
2022-12-31T09:59:33.183Z,17.53
2022-12-31T10:02:41.249Z,17.58
2022-12-31T10:05:40.876Z,17.74
2022-12-31T10:08:24.814Z,17.95
2022-12-31T10:11:03.463Z,18.24
2022-12-31T10:13:57.459Z,18.92
2022-12-31T10:16:41.627Z,19.45
2022-12-31T10:19:13.338Z,19.86
2022-12-31T10:22:22.393Z,19.91
2022-12-31T10:25:38.476Z,19.78
2022-12-31T10:28:25.899Z,19.56
2022-12-31T10:31:25.064Z,19.73
2022-12-31T10:34:13.100Z,19.91
2022-12-31T10:36:58.795Z,19.73
2022-12-31T10:39:46.122Z,19.76
2022-12-31T10:42:39.042Z,19.89
2022-12-31T10:45:53.496Z,19.83
2022-12-31T10:48:36.903Z,19.70
2022-12-31T10:51:32.915Z,19.84
2022-12-31T10:54:35.804Z,19.96
2022-12-31T10:57:16.338Z,20.48
2022-12-31T11:00:01.502Z,20.60
2022-12-31T11:03:10.510Z,20.91
2022-12-31T11:06:16.971Z,20.97
2022-12-31T11:09:37.452Z,21.37
2022-12-31T11:12:26.370Z,21.59
2022-12-31T11:15:00.676Z,21.53
2022-12-31T11:18:06.804Z,21.14
2022-12-31T11:21:07.472Z,20.77
2022-12-31T11:23:44.791Z,20.49
2022-12-31T11:26:53.916Z,20.10
2022-12-31T11:29:53.552Z,19.85
2022-12-31T11:32:31.264Z,19.55
2022-12-31T11:35:22.766Z,19.26
2022-12-31T11:38:28.627Z,19.25
2022-12-31T11:41:13.289Z,19.06
2022-12-31T11:44:36.116Z,18.98
2022-12-31T11:47:30.708Z,18.89
2022-12-31T11:50:35.649Z,18.87
2022-12-31T11:53:30.960Z,18.79
2022-12-31T11:56:06.780Z,18.80
2022-12-31T11:58:49.538Z,18.76
2022-12-31T12:01:36.384Z,18.69
2022-12-31T12:04:10.631Z,18.69
2022-12-31T12:06:44.385Z,18.64
2022-12-31T12:09:28.759Z,18.58
2022-12-31T12:12:03.891Z,18.60
2022-12-31T12:14:38.461Z,18.62
2022-12-31T12:17:13.324Z,18.58
2022-12-31T12:19:53.171Z,18.61
2022-12-31T12:22:26.663Z,19.04
2022-12-31T12:25:20.678Z,18.89
2022-12-31T12:27:53.060Z,19.04
2022-12-31T12:30:28.315Z,19.51
2022-12-31T12:33:01.868Z,19.68
2022-12-31T12:35:35.669Z,19.75
2022-12-31T12:38:14.894Z,19.57
2022-12-31T12:40:53.977Z,19.43
2022-12-31T12:43:29.831Z,19.39
2022-12-31T12:46:30.300Z,19.23
2022-12-31T12:49:04.079Z,19.15
2022-12-31T12:52:03.043Z,19.18
2022-12-31T12:54:56.715Z,19.05
2022-12-31T12:58:00.879Z,19.02
2022-12-31T13:00:52.009Z,18.88
2022-12-31T13:03:37.563Z,18.76
2022-12-31T13:06:28.886Z,18.72
2022-12-31T13:09:15.682Z,18.65
2022-12-31T13:12:15.969Z,18.58
2022-12-31T13:15:11.551Z,18.49
2022-12-31T13:18:04.427Z,18.38
2022-12-31T13:20:59.794Z,18.34
2022-12-31T13:23:50.293Z,18.26
2022-12-31T13:26:34.123Z,18.21
2022-12-31T13:29:10.586Z,18.14
2022-12-31T13:31:43.094Z,18.12
2022-12-31T13:34:22.396Z,18.06
2022-12-31T13:36:56.773Z,18.05
2022-12-31T13:39:38.006Z,17.93
2022-12-31T13:42:28.824Z,17.91
2022-12-31T13:45:04.400Z,17.89
2022-12-31T13:47:56.571Z,17.84
2022-12-31T13:50:38.754Z,17.81
2022-12-31T13:53:31.441Z,17.77
2022-12-31T13:56:13.213Z,17.69
2022-12-31T13:59:09.998Z,17.70
2022-12-31T14:02:26.772Z,17.64
2022-12-31T14:05:14.022Z,17.59
2022-12-31T14:07:54.980Z,17.55
2022-12-31T14:10:53.051Z,17.52
2022-12-31T14:13:34.597Z,17.53
2022-12-31T14:16:19.780Z,17.48
2022-12-31T14:19:04.925Z,17.43
2022-12-31T14:21:47.193Z,17.39
2022-12-31T14:24:45.324Z,17.36
2022-12-31T14:27:22.852Z,17.35
2022-12-31T14:30:16.787Z,17.29
2022-12-31T14:33:10.861Z,17.26
2022-12-31T14:35:51.751Z,17.20
2022-12-31T14:38:45.302Z,17.14
2022-12-31T14:41:34.013Z,17.12
2022-12-31T14:44:27.111Z,17.09
2022-12-31T14:47:35.362Z,17.05
2022-12-31T14:50:17.355Z,17.01
2022-12-31T14:53:04.059Z,17.00
2022-12-31T14:55:37.248Z,16.97
2022-12-31T14:58:41.374Z,16.94
2022-12-31T15:01:16.486Z,16.95
2022-12-31T15:03:50.550Z,16.91
2022-12-31T15:06:41.951Z,16.88
2022-12-31T15:09:46.368Z,16.86
2022-12-31T15:12:20.715Z,16.77
2022-12-31T15:15:16.615Z,16.74
2022-12-31T15:18:17.429Z,16.72
2022-12-31T15:21:10.892Z,16.67
2022-12-31T15:23:44.047Z,16.61
2022-12-31T15:26:28.448Z,16.60
2022-12-31T15:29:23.091Z,16.60
2022-12-31T15:31:57.347Z,16.60
2022-12-31T15:34:31.035Z,16.65
2022-12-31T15:37:05.766Z,16.65
2022-12-31T15:39:40.893Z,16.66
2022-12-31T15:42:49.229Z,16.66
2022-12-31T15:45:33.204Z,16.62
2022-12-31T15:48:15.624Z,16.59
2022-12-31T15:50:51.646Z,16.58
2022-12-31T15:53:43.541Z,16.58
2022-12-31T15:56:23.664Z,16.51
2022-12-31T15:58:58.887Z,16.50
2022-12-31T16:01:37.102Z,16.52
2022-12-31T16:04:19.961Z,16.46
2022-12-31T16:06:52.614Z,16.46
2022-12-31T16:09:29.766Z,16.46
2022-12-31T16:12:03.977Z,16.47
2022-12-31T16:14:39.480Z,16.50
2022-12-31T16:17:29.878Z,16.51
2022-12-31T16:20:21.116Z,16.52
2022-12-31T16:22:57.544Z,16.53
2022-12-31T16:25:32.705Z,16.51
2022-12-31T16:28:05.159Z,16.54
2022-12-31T16:30:37.121Z,16.52
2022-12-31T16:33:15.009Z,16.52
2022-12-31T16:35:55.590Z,16.48
2022-12-31T16:38:35.702Z,16.47
2022-12-31T16:41:17.568Z,16.38
2022-12-31T16:43:50.242Z,16.36
2022-12-31T16:46:27.123Z,16.32
2022-12-31T16:49:04.367Z,16.28
2022-12-31T16:51:37.925Z,16.23
2022-12-31T16:54:30.639Z,16.18
2022-12-31T16:57:04.665Z,16.14
2022-12-31T16:59:44.158Z,16.08
2022-12-31T17:02:21.936Z,16.04
2022-12-31T17:04:56.273Z,16.00
2022-12-31T17:07:28.117Z,16.00
2022-12-31T17:10:18.335Z,15.97
2022-12-31T17:15:50.869Z,15.91
2022-12-31T17:18:25.765Z,15.88
2022-12-31T17:21:06.938Z,15.83
2022-12-31T17:23:42.641Z,15.78
2022-12-31T17:26:28.177Z,15.73
2022-12-31T17:29:02.076Z,15.72
2022-12-31T17:31:39.852Z,15.73
2022-12-31T17:34:17.014Z,15.74
2022-12-31T17:36:58.884Z,15.68
2022-12-31T17:39:51.775Z,15.66
2022-12-31T17:42:33.027Z,15.68
2022-12-31T17:45:20.452Z,15.65
2022-12-31T17:47:53.785Z,15.67
2022-12-31T17:50:38.803Z,15.68
2022-12-31T17:53:23.039Z,15.61
2022-12-31T17:56:18.733Z,15.62
2022-12-31T17:58:55.297Z,15.57
2022-12-31T18:01:27.199Z,15.54
2022-12-31T18:03:58.985Z,15.50
2022-12-31T18:06:31.013Z,15.52
2022-12-31T18:09:02.817Z,15.52
2022-12-31T18:11:36.700Z,15.52
2022-12-31T18:14:09.151Z,15.59
2022-12-31T18:16:41.006Z,15.64
2022-12-31T18:19:45.747Z,15.71
2022-12-31T18:22:14.496Z,15.72
2022-12-31T18:24:48.409Z,15.68
2022-12-31T18:27:20.845Z,15.55
2022-12-31T18:30:04.288Z,15.53
2022-12-31T18:32:41.424Z,15.63
2022-12-31T18:38:16.486Z,15.82
2022-12-31T18:40:54.850Z,15.85
2022-12-31T18:43:26.678Z,15.88
2022-12-31T18:45:58.457Z,15.92
2022-12-31T18:48:30.196Z,15.94
2022-12-31T18:51:03.903Z,15.91
2022-12-31T18:53:35.564Z,15.94
2022-12-31T18:56:12.809Z,15.90
2022-12-31T18:58:46.008Z,15.94
2022-12-31T19:01:46.348Z,16.03
2022-12-31T19:04:26.944Z,16.07
2022-12-31T19:06:59.486Z,16.09
2022-12-31T19:09:45.102Z,16.11
2022-12-31T19:12:18.250Z,16.11
2022-12-31T19:14:49.950Z,16.07
2022-12-31T19:17:21.821Z,16.04
2022-12-31T19:19:53.536Z,16.00
2022-12-31T19:22:25.262Z,15.96
2022-12-31T19:24:56.963Z,15.91
2022-12-31T19:27:31.780Z,15.84
2022-12-31T19:30:03.913Z,15.84
2022-12-31T19:32:35.687Z,15.86
2022-12-31T19:35:11.852Z,15.86
2022-12-31T19:37:45.455Z,15.89
2022-12-31T19:40:26.913Z,15.87
2022-12-31T19:42:58.723Z,15.87
2022-12-31T19:45:32.019Z,15.87
2022-12-31T19:48:04.003Z,15.84
2022-12-31T19:50:35.908Z,15.83
2022-12-31T19:53:19.542Z,15.78
2022-12-31T19:55:52.427Z,15.78
2022-12-31T19:58:26.453Z,15.77
2022-12-31T20:01:02.878Z,15.74
2022-12-31T20:03:35.494Z,15.73
2022-12-31T20:06:09.946Z,15.70
2022-12-31T20:08:44.768Z,15.68
2022-12-31T20:11:19.606Z,15.67
2022-12-31T20:13:56.438Z,15.67
2022-12-31T20:16:29.777Z,15.67
2022-12-31T20:19:01.602Z,15.70
2022-12-31T20:21:33.453Z,15.68
2022-12-31T20:24:05.420Z,15.69
2022-12-31T20:26:37.170Z,15.68
2022-12-31T20:29:11.698Z,15.68
2022-12-31T20:31:43.448Z,15.67
2022-12-31T20:34:15.135Z,15.65
2022-12-31T20:36:46.922Z,15.64
2022-12-31T20:39:18.757Z,15.68
2022-12-31T20:41:50.757Z,15.66
2022-12-31T20:44:22.480Z,15.65
2022-12-31T20:46:54.219Z,15.63
2022-12-31T20:49:52.145Z,15.60
2022-12-31T20:52:20.895Z,15.57
2022-12-31T20:54:58.568Z,15.53
2022-12-31T20:57:33.808Z,15.49
2022-12-31T21:00:07.134Z,15.52
2022-12-31T21:02:42.415Z,15.50
2022-12-31T21:05:15.022Z,15.49
2022-12-31T21:07:46.811Z,15.51
2022-12-31T21:10:18.672Z,15.49
2022-12-31T21:12:53.409Z,15.47
2022-12-31T21:15:25.527Z,15.44
2022-12-31T21:17:59.183Z,15.45
2022-12-31T21:20:31.139Z,15.42
2022-12-31T21:23:03.127Z,15.44
2022-12-31T21:25:34.932Z,15.43
2022-12-31T21:28:06.725Z,15.42
2022-12-31T21:30:42.122Z,15.43
2022-12-31T21:33:13.977Z,15.41
2022-12-31T21:35:53.780Z,15.40
2022-12-31T21:38:27.436Z,15.37
2022-12-31T21:41:03.440Z,15.36
2022-12-31T21:43:35.304Z,15.34
2022-12-31T21:46:07.696Z,15.33
2022-12-31T21:48:39.560Z,15.31
2022-12-31T21:51:14.201Z,15.29
2022-12-31T21:53:46.044Z,15.21
2022-12-31T21:56:21.106Z,15.19
2022-12-31T21:59:17.471Z,15.18
2022-12-31T22:02:08.173Z,15.14
2022-12-31T22:07:31.901Z,15.08
2022-12-31T22:10:03.842Z,15.06
2022-12-31T22:12:35.637Z,15.02
2022-12-31T22:15:15.175Z,15.02
2022-12-31T22:17:47.844Z,14.99
2022-12-31T22:20:29.348Z,14.95
2022-12-31T22:23:01.157Z,14.93
2022-12-31T22:25:37.826Z,14.92
2022-12-31T22:28:37.449Z,14.90
2022-12-31T22:31:01.440Z,14.88
2022-12-31T22:33:33.299Z,14.87
2022-12-31T22:36:08.511Z,14.84
2022-12-31T22:38:40.618Z,14.82
2022-12-31T22:41:18.251Z,14.78
2022-12-31T22:44:00.233Z,14.74
2022-12-31T22:46:35.497Z,14.70
2022-12-31T22:49:07.284Z,14.67
2022-12-31T22:51:57.360Z,14.67
2022-12-31T22:54:30.641Z,14.68
2022-12-31T22:57:02.415Z,14.61
2022-12-31T22:59:34.112Z,14.56
2022-12-31T23:02:05.814Z,14.52
2022-12-31T23:04:37.880Z,14.51
2022-12-31T23:07:09.692Z,14.49
2022-12-31T23:10:00.327Z,14.49
2022-12-31T23:12:33.330Z,14.45
2022-12-31T23:15:24.026Z,14.39
2022-12-31T23:18:14.192Z,14.33
2022-12-31T23:21:04.551Z,14.26
2022-12-31T23:23:36.265Z,14.19
2022-12-31T23:26:07.998Z,14.13
2022-12-31T23:28:41.901Z,14.10
2022-12-31T23:31:13.677Z,14.06
2022-12-31T23:33:45.429Z,14.06
2022-12-31T23:36:17.143Z,14.06
2022-12-31T23:38:49.023Z,14.05
2022-12-31T23:41:21.424Z,14.05
2022-12-31T23:43:53.138Z,14.09
2022-12-31T23:46:25.066Z,14.15
2022-12-31T23:48:56.829Z,14.17
2022-12-31T23:51:28.714Z,14.16
2022-12-31T23:54:00.969Z,14.19
2022-12-31T23:56:32.845Z,14.22
2022-12-31T23:59:04.909Z,14.23
